Time;durP1;ratioP1;P1;durP2;ratioP2;P2;SDS_P1;SDS_P2;PMS_P1;PMS_P2;Temp;Humidity;BMP_temperature;BMP_pressure;BME280_temperature;BME280_humidity;BME280_pressure;Samples;Min_cycle;Max_cycle;Signal;HPM_P1;HPM_P2
2022/05/20 00:01:05;;;;;;;6.50;4.20;;;23.20;58.80;;;;;;5088602;28;20447;-89
2022/05/20 00:03:32;;;;;;;3.47;3.17;;;23.30;58.50;;;;;;5058789;28;20924;-88
2022/05/20 00:06:00;;;;;;;6.07;4.03;;;23.40;58.40;;;;;;5080367;28;20440;-88
2022/05/20 00:08:27;;;;;;;6.27;3.87;;;23.50;58.40;;;;;;5082048;28;21148;-88
2022/05/20 00:10:55;;;;;;;5.10;3.97;;;23.50;58.30;;;;;;5064215;28;20460;-89
2022/05/20 00:13:23;;;;;;;4.63;4.20;;;23.60;58.10;;;;;;5088905;28;20495;-86
2022/05/20 00:15:50;;;;;;;6.70;3.87;;;23.60;58.30;;;;;;5066516;28;20835;-89
2022/05/20 00:18:19;;;;;;;10.10;4.40;;;23.60;58.40;;;;;;5098661;28;20545;-88
2022/05/20 00:20:46;;;;;;;4.97;3.67;;;23.60;58.60;;;;;;5065827;28;20545;-90
2022/05/20 00:23:13;;;;;;;4.73;4.30;;;23.60;58.50;;;;;;5097881;28;20572;-88
2022/05/20 00:25:49;;;;;;;4.30;3.90;;;23.50;58.20;;;;;;5079558;28;20505;-89
2022/05/20 00:28:20;;;;;;;4.23;3.83;;;23.50;58.60;;;;;;5067089;28;20488;-89
2022/05/20 00:30:48;;;;;;;6.43;4.77;;;23.50;58.60;;;;;;5081567;28;20534;-88
2022/05/20 00:33:15;;;;;;;7.90;5.60;;;23.60;58.90;;;;;;5078436;28;20475;-88
2022/05/20 00:35:45;;;;;;;8.27;4.90;;;23.60;59.50;;;;;;5065349;28;20459;-89
2022/05/20 00:38:13;;;;;;;8.77;4.90;;;23.60;59.80;;;;;;5062964;28;20439;-90
2022/05/20 00:40:41;;;;;;;6.87;6.20;;;23.60;59.30;;;;;;5072397;28;20467;-88
2022/05/20 00:43:11;;;;;;;7.90;6.10;;;23.60;59.30;;;;;;5090374;28;20471;-88
2022/05/20 00:45:38;;;;;;;12.30;7.50;;;23.60;59.50;;;;;;5084522;28;20451;-88
2022/05/20 00:48:06;;;;;;;14.13;6.70;;;23.50;59.70;;;;;;5063862;28;20446;-89
2022/05/20 00:50:34;;;;;;;10.10;6.50;;;23.50;60.20;;;;;;5080690;28;20448;-90
2022/05/20 00:53:03;;;;;;;9.57;7.00;;;23.50;60.00;;;;;;5085186;28;21038;-88
2022/05/20 00:55:30;;;;;;;15.80;7.63;;;23.60;59.90;;;;;;5099954;28;20546;-89
2022/05/20 00:58:03;;;;;;;13.70;8.17;;;23.50;60.00;;;;;;5085248;28;20533;-90
2022/05/20 01:00:32;;;;;;;18.53;8.57;;;23.50;60.30;;;;;;5079832;28;20455;-88
2022/05/20 01:03:04;;;;;;;12.43;7.00;;;23.50;60.20;;;;;;5097744;28;20458;-89
2022/05/20 01:05:37;;;;;;;11.67;8.20;;;23.20;61.00;;;;;;5065891;28;20513;-89
2022/05/20 01:08:08;;;;;;;14.67;7.60;;;23.20;61.00;;;;;;5081644;28;20526;-89
2022/05/20 01:10:35;;;;;;;10.00;7.37;;;23.30;61.20;;;;;;5099588;28;20478;-89
2022/05/20 01:13:02;;;;;;;20.30;8.60;;;23.30;61.00;;;;;;5097432;28;20450;-92
2022/05/20 01:15:30;;;;;;;12.00;7.90;;;23.50;60.80;;;;;;5098850;28;21154;-88
2022/05/20 01:17:59;;;;;;;10.67;7.10;;;23.40;60.60;;;;;;5096738;28;20471;-89
2022/05/20 01:20:29;;;;;;;16.30;8.10;;;23.30;60.70;;;;;;5101483;28;20465;-90
2022/05/20 01:23:08;;;;;;;69.60;12.37;;;23.30;60.90;;;;;;5053877;28;20502;-89
2022/05/20 01:25:36;;;;;;;39.80;9.17;;;23.30;60.50;;;;;;5072319;28;20449;-88
2022/05/20 01:28:04;;;;;;;9.63;6.93;;;23.40;60.90;;;;;;5079641;28;20966;-89
2022/05/20 01:30:32;;;;;;;26.60;7.23;;;23.30;60.70;;;;;;5088243;28;20446;-90
2022/05/20 01:33:02;;;;;;;22.63;8.50;;;23.30;60.80;;;;;;5063477;28;21031;-89
2022/05/20 01:35:37;;;;;;;14.70;8.10;;;23.30;60.30;;;;;;5080584;28;21028;-89
2022/05/20 01:38:06;;;;;;;10.70;6.70;;;23.30;60.60;;;;;;5080538;28;20886;-88
2022/05/20 01:40:41;;;;;;;13.00;7.07;;;23.20;60.80;;;;;;5097980;28;20551;-90
2022/05/20 01:43:17;;;;;;;19.13;8.30;;;23.30;60.80;;;;;;5083428;28;20480;-88
2022/05/20 01:45:52;;;;;;;14.33;8.23;;;23.20;60.30;;;;;;5071710;28;20473;-89
2022/05/20 01:48:26;;;;;;;17.60;8.63;;;23.00;60.60;;;;;;5068184;28;20538;-89
2022/05/20 01:50:55;;;;;;;9.70;7.27;;;23.00;60.90;;;;;;5080195;28;20496;-89
2022/05/20 01:53:31;;;;;;;10.43;7.80;;;23.00;61.20;;;;;;5084665;28;20554;-89
2022/05/20 01:56:07;;;;;;;12.73;7.47;;;22.90;61.30;;;;;;5062381;28;20457;-89
2022/05/20 01:58:40;;;;;;;31.03;9.97;;;23.00;61.00;;;;;;5098237;28;20461;-89
2022/05/20 02:01:14;;;;;;;13.27;8.93;;;23.00;60.80;;;;;;5068071;28;20976;-89
2022/05/20 02:03:45;;;;;;;13.37;8.43;;;22.90;61.50;;;;;;5098812;28;20472;-89
2022/05/20 02:06:20;;;;;;;25.63;9.20;;;22.80;61.80;;;;;;5049386;28;20542;-89
2022/05/20 02:08:52;;;;;;;13.80;8.90;;;22.80;62.00;;;;;;5053539;28;20441;-92
2022/05/20 02:11:25;;;;;;;12.23;8.57;;;22.80;62.10;;;;;;5078143;28;20574;-88
2022/05/20 02:13:58;;;;;;;13.90;7.47;;;22.90;62.30;;;;;;5087706;28;20491;-90
2022/05/20 02:16:30;;;;;;;10.80;7.50;;;23.00;61.90;;;;;;5071157;28;20586;-88
2022/05/20 02:19:01;;;;;;;13.00;7.47;;;23.00;61.50;;;;;;5061840;28;20427;-91
2022/05/20 02:21:32;;;;;;;11.10;7.33;;;23.00;61.50;;;;;;5070649;28;20461;-89
2022/05/20 02:24:05;;;;;;;11.03;6.53;;;23.00;60.90;;;;;;5097234;28;20543;-88
2022/05/20 02:26:39;;;;;;;10.50;7.10;;;23.00;60.80;;;;;;5062817;28;20452;-88
2022/05/20 02:29:11;;;;;;;13.10;8.20;;;23.00;60.90;;;;;;5079549;28;21081;-89
2022/05/20 02:31:42;;;;;;;9.60;8.20;;;23.00;61.00;;;;;;5081967;28;20451;-89
2022/05/20 02:34:09;;;;;;;10.00;7.27;;;23.00;60.90;;;;;;5096451;28;20534;-89
2022/05/20 02:36:36;;;;;;;8.80;7.23;;;22.90;61.10;;;;;;5100853;28;20443;-89
2022/05/20 02:39:14;;;;;;;10.70;6.50;;;22.90;61.00;;;;;;5055745;28;20443;-89
2022/05/20 02:41:44;;;;;;;11.07;6.03;;;22.90;61.00;;;;;;5079057;28;20516;-90
2022/05/20 02:44:11;;;;;;;13.60;7.17;;;22.80;61.20;;;;;;5095112;28;20966;-91
2022/05/20 02:46:39;;;;;;;9.97;7.20;;;22.90;61.40;;;;;;5068729;28;20522;-88
2022/05/20 02:49:06;;;;;;;10.23;7.10;;;22.90;61.10;;;;;;5054817;28;21010;-88
2022/05/20 02:51:33;;;;;;;11.67;7.33;;;22.80;60.90;;;;;;5067984;28;20538;-89
2022/05/20 02:54:00;;;;;;;11.93;6.70;;;22.70;61.10;;;;;;5095451;28;20472;-88
2022/05/20 02:56:28;;;;;;;13.13;7.20;;;22.70;61.80;;;;;;5068746;28;20454;-89
2022/05/20 03:04:24;;;;;;;7.20;6.50;;;22.70;61.60;;;;;;5063105;28;20552;-89
2022/05/20 03:06:54;;;;;;;7.90;6.00;;;22.70;61.80;;;;;;5054808;28;20456;-90
2022/05/20 03:09:23;;;;;;;11.23;7.97;;;22.70;61.40;;;;;;5071952;28;20886;-88
2022/05/20 03:11:52;;;;;;;10.03;6.47;;;22.40;62.20;;;;;;5085613;28;20455;-89
2022/05/20 03:14:21;;;;;;;11.50;7.70;;;22.50;62.70;;;;;;5072382;28;20505;-91
2022/05/20 03:16:49;;;;;;;13.20;7.73;;;22.60;62.20;;;;;;5052384;28;20455;-89
2022/05/20 03:19:16;;;;;;;10.10;6.40;;;22.40;63.00;;;;;;5085400;28;20454;-89
2022/05/20 03:21:43;;;;;;;9.87;6.87;;;22.40;63.10;;;;;;5077334;28;20466;-89
2022/05/20 03:24:12;;;;;;;11.10;6.57;;;22.40;62.40;;;;;;5100022;28;20467;-91
2022/05/20 03:26:39;;;;;;;6.57;5.90;;;22.50;63.00;;;;;;5087774;28;20536;-89
2022/05/20 03:29:08;;;;;;;8.07;6.33;;;22.60;62.80;;;;;;5066864;28;20591;-92
2022/05/20 03:31:38;;;;;;;5.23;4.70;;;22.70;62.00;;;;;;5073544;28;20463;-89
2022/05/20 03:34:06;;;;;;;5.90;5.30;;;22.60;62.00;;;;;;5066841;28;20893;-92
2022/05/20 03:36:35;;;;;;;8.77;5.27;;;22.40;62.10;;;;;;5066291;28;20443;-92
2022/05/20 03:39:02;;;;;;;14.83;5.40;;;22.20;63.60;;;;;;5065220;28;20545;-90
2022/05/20 03:41:29;;;;;;;7.43;5.63;;;22.10;63.40;;;;;;5087141;28;20471;-88
2022/05/20 03:43:56;;;;;;;6.30;5.67;;;22.10;64.00;;;;;;5084656;28;20558;-91
2022/05/20 03:46:25;;;;;;;5.73;5.13;;;22.00;63.40;;;;;;5067723;28;20454;-91
2022/05/20 03:48:52;;;;;;;6.40;5.37;;;22.00;64.10;;;;;;5067077;28;20468;-89
2022/05/20 03:51:19;;;;;;;7.20;5.57;;;22.00;64.00;;;;;;5081330;28;21017;-89
2022/05/20 03:53:46;;;;;;;5.30;4.80;;;22.00;64.20;;;;;;5084287;28;20472;-90
2022/05/20 03:56:13;;;;;;;7.80;5.23;;;22.00;64.30;;;;;;5069270;28;20444;-88
2022/05/20 03:58:40;;;;;;;6.23;5.73;;;22.20;64.00;;;;;;5084081;28;20467;-88
2022/05/20 04:03:56;;;;;;;9.90;5.70;;;22.40;63.10;;;;;;5068180;28;20479;-92
2022/05/20 04:06:23;;;;;;;7.00;5.57;;;22.40;63.10;;;;;;5049963;28;20467;-89
2022/05/20 04:08:51;;;;;;;6.00;5.40;;;22.50;63.20;;;;;;5079854;28;20499;-92
2022/05/20 04:11:19;;;;;;;5.90;5.13;;;22.60;63.00;;;;;;5069373;28;20593;-91
2022/05/20 04:13:46;;;;;;;7.17;6.03;;;22.60;62.90;;;;;;5079184;28;20466;-91
2022/05/20 04:16:16;;;;;;;8.43;7.10;;;22.70;62.10;;;;;;5069033;28;20549;-91
2022/05/20 04:18:44;;;;;;;7.20;6.50;;;22.80;62.10;;;;;;5057280;28;20456;-92
2022/05/20 04:21:15;;;;;;;6.87;6.10;;;22.80;61.90;;;;;;5062713;28;20468;-92
2022/05/20 04:23:43;;;;;;;7.47;6.77;;;22.90;61.90;;;;;;5069240;28;20451;-92
2022/05/20 04:26:11;;;;;;;8.57;5.73;;;22.90;61.60;;;;;;5073420;28;20447;-92
2022/05/20 04:28:38;;;;;;;7.90;6.70;;;23.00;62.00;;;;;;5066347;28;20498;-91
2022/05/20 04:31:07;;;;;;;7.30;6.10;;;22.90;62.00;;;;;;5082566;28;20450;-91
2022/05/20 04:33:35;;;;;;;10.37;6.80;;;23.00;62.10;;;;;;5065766;28;20464;-90
2022/05/20 04:36:03;;;;;;;7.53;6.70;;;22.80;61.80;;;;;;5068954;28;20499;-90
2022/05/20 04:38:31;;;;;;;6.63;5.80;;;22.70;62.40;;;;;;5072202;28;20450;-91
2022/05/20 04:49:12;;;;;;;14.97;8.27;;;22.90;61.70;;;;;;5056646;28;20443;-93
2022/05/20 04:51:40;;;;;;;8.80;7.10;;;22.90;61.70;;;;;;5050369;28;20978;-91
2022/05/20 04:56:55;;;;;;;6.70;6.10;;;23.00;61.30;;;;;;5064268;28;20447;-91
2022/05/20 04:59:22;;;;;;;7.70;6.37;;;22.90;61.80;;;;;;5044665;28;20444;-91
2022/05/20 05:01:49;;;;;;;7.53;6.70;;;22.80;61.50;;;;;;5078911;28;20470;-91
2022/05/20 05:04:16;;;;;;;7.87;6.60;;;22.90;61.70;;;;;;5068588;28;20474;-91
2022/05/20 05:06:43;;;;;;;10.30;7.50;;;23.00;62.40;;;;;;5077378;28;20512;-91
2022/05/20 05:09:12;;;;;;;8.03;7.27;;;23.10;62.50;;;;;;5084618;28;20454;-91
2022/05/20 05:11:40;;;;;;;10.30;7.10;;;23.20;62.00;;;;;;5055578;28;20454;-91
2022/05/20 05:14:08;;;;;;;9.60;7.67;;;23.20;61.50;;;;;;5092741;28;20471;-91
2022/05/20 05:16:36;;;;;;;8.03;7.30;;;23.30;61.80;;;;;;5050762;28;20473;-92
2022/05/20 05:19:03;;;;;;;7.80;7.00;;;23.30;61.50;;;;;;5066393;28;20444;-90
2022/05/20 05:21:30;;;;;;;7.43;6.63;;;23.10;61.20;;;;;;5049594;28;20463;-91
2022/05/20 05:24:00;;;;;;;7.97;7.17;;;23.10;62.20;;;;;;5073574;28;20470;-91
2022/05/20 05:26:29;;;;;;;8.50;6.33;;;23.00;62.10;;;;;;5075326;28;20435;-91
2022/05/20 05:28:57;;;;;;;8.37;6.60;;;23.20;62.30;;;;;;5061630;28;20885;-91
2022/05/20 05:31:24;;;;;;;9.57;8.63;;;23.30;62.50;;;;;;5042219;28;20440;-90
2022/05/20 05:33:51;;;;;;;9.20;6.63;;;23.20;62.60;;;;;;5080694;28;20464;-91
2022/05/20 05:36:19;;;;;;;10.00;7.50;;;23.00;62.70;;;;;;5057208;28;21189;-91
2022/05/20 05:38:46;;;;;;;9.57;7.53;;;23.00;63.90;;;;;;5092979;28;20918;-90
2022/05/20 05:41:17;;;;;;;10.13;6.87;;;23.20;63.70;;;;;;5063183;28;20468;-90
2022/05/20 05:43:46;;;;;;;7.70;7.00;;;23.20;63.00;;;;;;5056726;28;20474;-91
2022/05/20 05:46:13;;;;;;;8.90;7.00;;;23.30;63.10;;;;;;5048996;28;20451;-91
2022/05/20 05:48:40;;;;;;;9.80;7.17;;;23.40;62.80;;;;;;5066603;28;21001;-90
2022/05/20 05:51:08;;;;;;;7.90;6.60;;;23.50;62.40;;;;;;5059310;28;20442;-90
2022/05/20 05:53:35;;;;;;;10.10;6.43;;;23.50;62.10;;;;;;5060856;28;20483;-90
2022/05/20 05:56:05;;;;;;;12.00;6.97;;;23.40;62.20;;;;;;5059653;28;20466;-90
2022/05/20 05:58:33;;;;;;;9.10;7.10;;;23.40;62.50;;;;;;5071679;28;20459;-90
2022/05/20 06:01:03;;;;;;;13.13;9.43;;;23.50;62.70;;;;;;5075116;28;20471;-91
2022/05/20 06:03:30;;;;;;;11.93;8.43;;;23.30;62.40;;;;;;5091819;28;20482;-90
2022/05/20 06:05:57;;;;;;;12.60;8.80;;;23.20;63.10;;;;;;5073230;28;20466;-90
2022/05/20 06:08:25;;;;;;;15.60;9.80;;;23.00;63.50;;;;;;5089506;28;20452;-90
2022/05/20 06:10:52;;;;;;;11.33;8.63;;;23.00;63.50;;;;;;5082727;28;20465;-90
2022/05/20 06:13:24;;;;;;;11.40;9.13;;;23.00;63.40;;;;;;5092671;28;20520;-89
2022/05/20 06:15:52;;;;;;;13.63;9.60;;;22.80;64.10;;;;;;5041565;28;20444;-90
2022/05/20 06:18:21;;;;;;;15.13;10.10;;;22.60;64.90;;;;;;5094417;28;20458;-90
2022/05/20 06:20:48;;;;;;;18.03;10.43;;;22.40;65.30;;;;;;5056723;28;20873;-90
2022/05/20 06:23:16;;;;;;;13.00;10.83;;;22.30;65.40;;;;;;5084243;28;21868;-91
2022/05/20 06:25:43;;;;;;;16.07;11.87;;;22.30;65.70;;;;;;5078543;28;20464;-91
2022/05/20 06:28:14;;;;;;;18.23;12.60;;;22.40;66.10;;;;;;5068961;28;20521;-91
2022/05/20 06:30:42;;;;;;;18.57;12.83;;;22.50;64.60;;;;;;5047555;28;20440;-89
2022/05/20 06:33:09;;;;;;;18.90;12.63;;;22.70;64.80;;;;;;5052276;28;20454;-90
2022/05/20 06:41:08;;;;;;;14.90;11.10;;;23.20;63.80;;;;;;5066244;28;20471;-90
2022/05/20 06:43:35;;;;;;;17.67;11.77;;;23.50;63.00;;;;;;5078542;28;20613;-90
2022/05/20 06:46:04;;;;;;;16.70;11.87;;;23.60;62.70;;;;;;5058611;28;20458;-90
2022/05/20 06:48:40;;;;;;;13.43;12.03;;;23.70;62.50;;;;;;5065945;28;20485;-91
2022/05/20 06:51:09;;;;;;;16.43;11.30;;;23.90;63.00;;;;;;5047074;28;20447;-89
2022/05/20 06:53:36;;;;;;;15.23;11.83;;;24.10;62.70;;;;;;5059543;28;20567;-89
2022/05/20 06:56:04;;;;;;;15.93;10.27;;;24.30;62.80;;;;;;5050747;28;20462;-89
2022/05/20 06:58:32;;;;;;;13.57;10.53;;;24.10;61.90;;;;;;5076267;27;20516;-90
2022/05/20 07:00:59;;;;;;;13.50;10.67;;;24.30;62.30;;;;;;5078923;28;20467;-90
2022/05/20 07:03:27;;;;;;;13.03;10.27;;;24.40;62.60;;;;;;5091448;28;20558;-90
2022/05/20 07:05:54;;;;;;;11.10;9.03;;;24.20;61.20;;;;;;5040667;28;20444;-90
2022/05/20 07:08:22;;;;;;;15.90;10.50;;;24.10;61.00;;;;;;5070998;28;20956;-89
2022/05/20 07:10:49;;;;;;;15.13;10.00;;;24.10;61.80;;;;;;5041299;28;20439;-90
2022/05/20 07:13:16;;;;;;;20.40;10.87;;;24.20;62.90;;;;;;5056408;28;20477;-90
2022/05/20 07:15:43;;;;;;;14.97;10.53;;;24.30;62.70;;;;;;5044161;28;20492;-90
2022/05/20 07:18:10;;;;;;;13.47;10.10;;;24.50;62.00;;;;;;5061317;28;20474;-89
2022/05/20 07:20:37;;;;;;;14.17;10.37;;;24.50;61.70;;;;;;5056179;28;20447;-89
2022/05/20 07:23:04;;;;;;;14.60;10.97;;;24.40;60.70;;;;;;5070138;28;20447;-89
2022/05/20 07:25:36;;;;;;;15.50;10.03;;;24.50;60.80;;;;;;5057414;28;20712;-89
2022/05/20 07:28:03;;;;;;;12.93;9.73;;;24.50;60.60;;;;;;5074175;28;20548;-89
2022/05/20 07:30:30;;;;;;;13.60;9.77;;;24.40;61.80;;;;;;5073884;28;20454;-89
2022/05/20 07:32:57;;;;;;;15.30;9.70;;;24.50;61.70;;;;;;5088454;28;20470;-89
2022/05/20 07:35:24;;;;;;;13.63;9.73;;;24.60;61.60;;;;;;5061092;28;20816;-89
2022/05/20 07:37:51;;;;;;;12.20;9.73;;;24.80;61.50;;;;;;5073923;28;20454;-89
2022/05/20 07:40:19;;;;;;;14.90;9.90;;;25.10;62.00;;;;;;5078171;28;20519;-88
2022/05/20 07:42:47;;;;;;;12.63;9.33;;;25.30;61.40;;;;;;5057420;28;20481;-89
2022/05/20 07:45:16;;;;;;;12.90;8.70;;;25.30;60.80;;;;;;5073418;28;20546;-89
2022/05/20 07:47:44;;;;;;;14.00;9.50;;;25.50;60.60;;;;;;5061155;28;20527;-90
2022/05/20 07:50:12;;;;;;;13.17;9.53;;;25.70;60.30;;;;;;5057139;28;20527;-89
2022/05/20 07:55:32;;;;;;;9.60;8.60;;;25.90;60.30;;;;;;5074338;28;20538;-90
2022/05/20 07:58:02;;;;;;;13.50;8.10;;;26.00;57.70;;;;;;5068599;28;20447;-90
2022/05/20 08:00:29;;;;;;;13.03;7.60;;;26.10;58.00;;;;;;5060160;28;21020;-89
2022/05/20 08:03:01;;;;;;;8.53;7.63;;;26.20;58.70;;;;;;5058510;28;20548;-89
2022/05/20 08:05:29;;;;;;;10.63;8.90;;;26.00;57.90;;;;;;5090943;28;20467;-90
2022/05/20 08:08:00;;;;;;;9.40;8.30;;;25.70;59.40;;;;;;5059244;28;20810;-89
2022/05/20 08:10:29;;;;;;;12.50;9.50;;;25.90;60.70;;;;;;5075467;28;20762;-89
2022/05/20 08:12:56;;;;;;;9.10;8.07;;;26.10;58.70;;;;;;5092323;28;20514;-89
2022/05/20 08:15:25;;;;;;;9.30;7.23;;;26.20;57.70;;;;;;5085219;28;20475;-90
2022/05/20 08:17:52;;;;;;;10.67;8.27;;;26.30;58.80;;;;;;5060407;28;20451;-89
2022/05/20 08:20:25;;;;;;;10.30;7.90;;;26.50;59.10;;;;;;5076123;28;20512;-90
2022/05/20 08:22:53;;;;;;;8.43;7.50;;;26.50;58.60;;;;;;5071850;28;20775;-90
2022/05/20 08:25:20;;;;;;;7.53;6.80;;;26.70;58.30;;;;;;5077057;28;20623;-90
2022/05/20 08:27:48;;;;;;;8.03;7.20;;;26.90;58.40;;;;;;5083799;28;20447;-91
2022/05/20 08:30:17;;;;;;;7.30;6.50;;;27.20;58.40;;;;;;5071227;28;20905;-92
2022/05/20 08:32:46;;;;;;;6.73;5.80;;;27.40;58.10;;;;;;5073737;28;20440;-91
2022/05/20 08:35:13;;;;;;;5.10;4.60;;;27.50;57.10;;;;;;5083589;28;20467;-91
2022/05/20 08:37:43;;;;;;;6.40;5.60;;;27.60;55.80;;;;;;5082160;28;20466;-91
2022/05/20 08:40:12;;;;;;;6.70;5.10;;;27.70;55.00;;;;;;5098742;28;20467;-91
2022/05/20 08:42:39;;;;;;;5.53;5.03;;;27.60;57.50;;;;;;5080597;28;20981;-92
2022/05/20 08:45:07;;;;;;;5.80;4.60;;;27.50;55.70;;;;;;5090130;28;20547;-92
2022/05/20 08:47:41;;;;;;;7.00;5.20;;;27.70;56.90;;;;;;5083139;28;20458;-90
2022/05/20 08:50:15;;;;;;;6.00;5.50;;;27.90;56.50;;;;;;5098878;28;20444;-92
2022/05/20 08:52:42;;;;;;;4.60;4.20;;;28.00;55.50;;;;;;5077436;28;20933;-95
2022/05/20 08:55:10;;;;;;;4.87;4.43;;;28.00;56.30;;;;;;5090636;28;20478;-96
2022/05/20 08:57:39;;;;;;;6.83;5.10;;;28.10;55.30;;;;;;5096323;27;20479;-95
2022/05/20 09:00:09;;;;;;;5.07;4.63;;;28.10;54.60;;;;;;5090068;28;20535;-95
2022/05/20 09:02:36;;;;;;;4.80;4.50;;;28.00;54.40;;;;;;5057824;28;20455;-95
2022/05/20 09:05:18;;;;;;;6.30;4.90;;;27.80;55.30;;;;;;5076042;28;20969;-91
2022/05/20 09:08:01;;;;;;;6.50;5.90;;;28.10;57.00;;;;;;5064093;28;20441;-96
2022/05/20 09:10:31;;;;;;;7.90;5.57;;;28.30;55.00;;;;;;5065297;28;20456;-92
2022/05/20 09:13:08;;;;;;;6.23;5.10;;;28.30;54.00;;;;;;5061582;28;20452;-92
2022/05/20 09:15:46;;;;;;;7.23;5.73;;;28.10;54.60;;;;;;5060480;28;20440;-92
2022/05/20 09:18:20;;;;;;;6.60;6.00;;;28.10;53.40;;;;;;5084939;28;20446;-93
2022/05/20 09:20:51;;;;;;;8.10;6.03;;;28.20;52.00;;;;;;5077658;28;20447;-89
2022/05/20 09:23:21;;;;;;;6.27;5.70;;;28.30;52.80;;;;;;5087841;28;20505;-91
2022/05/20 09:25:59;;;;;;;6.57;5.43;;;28.40;53.60;;;;;;5070421;28;20727;-92
2022/05/20 09:28:32;;;;;;;5.90;5.40;;;28.70;52.20;;;;;;5072226;28;20443;-92
2022/05/20 09:31:12;;;;;;;7.43;6.43;;;28.50;52.50;;;;;;5078258;28;20451;-89
2022/05/20 09:33:39;;;;;;;8.20;5.83;;;28.80;53.50;;;;;;5076913;28;20479;-90
2022/05/20 09:36:08;;;;;;;7.20;6.10;;;29.10;52.50;;;;;;5059829;28;20436;-91
2022/05/20 09:38:40;;;;;;;6.00;5.40;;;29.10;51.10;;;;;;5076691;28;20451;-89
2022/05/20 09:41:14;;;;;;;6.63;6.00;;;29.50;52.50;;;;;;5046390;28;20447;-91
2022/05/20 09:43:43;;;;;;;6.90;6.30;;;29.70;53.00;;;;;;5073734;28;20469;-90
2022/05/20 09:46:29;;;;;;;9.20;6.40;;;29.80;53.30;;;;;;5074758;28;20432;-90
2022/05/20 09:49:04;;;;;;;8.73;6.30;;;30.10;51.30;;;;;;5072132;28;20497;-89
2022/05/20 09:51:39;;;;;;;8.07;5.83;;;30.30;50.30;;;;;;5069000;28;20470;-90
2022/05/20 09:54:20;;;;;;;6.80;6.10;;;30.30;48.40;;;;;;5068747;28;20632;-89
2022/05/20 09:56:58;;;;;;;7.40;6.33;;;30.20;50.80;;;;;;5070571;28;20454;-86
2022/05/20 09:59:35;;;;;;;6.60;5.50;;;30.00;52.50;;;;;;5068056;28;20483;-87
2022/05/20 10:02:05;;;;;;;7.37;5.97;;;30.00;50.90;;;;;;5066855;28;21001;-87
2022/05/20 10:04:42;;;;;;;6.63;6.13;;;30.40;52.80;;;;;;5084652;28;20475;-86
2022/05/20 10:07:14;;;;;;;7.43;6.70;;;30.60;49.40;;;;;;5047230;28;20479;-86
2022/05/20 10:09:46;;;;;;;6.90;5.47;;;30.70;50.10;;;;;;5068340;28;20472;-86
2022/05/20 10:12:26;;;;;;;7.80;6.13;;;31.00;51.40;;;;;;5059434;28;20447;-86
2022/05/20 10:14:58;;;;;;;6.50;5.90;;;31.40;50.50;;;;;;5083370;28;20466;-86
2022/05/20 10:17:39;;;;;;;7.27;6.57;;;31.70;50.00;;;;;;5069519;28;20476;-85
2022/05/20 10:20:12;;;;;;;11.10;6.17;;;31.90;49.20;;;;;;5083444;28;20451;-85
2022/05/20 10:22:50;;;;;;;7.93;6.20;;;32.10;47.60;;;;;;5086424;28;20459;-85
2022/05/20 10:25:26;;;;;;;7.63;6.27;;;32.10;46.70;;;;;;5084670;28;21153;-86
2022/05/20 10:28:01;;;;;;;7.33;6.50;;;31.80;45.90;;;;;;5085463;28;20954;-86
2022/05/20 10:33:24;;;;;;;7.37;5.77;;;31.80;48.50;;;;;;5075994;28;20451;-86
2022/05/20 10:36:07;;;;;;;7.97;5.97;;;32.10;45.70;;;;;;5060619;28;20451;-88
2022/05/20 10:38:58;;;;;;;7.40;6.20;;;32.20;46.10;;;;;;5066297;28;20444;-86
2022/05/20 10:41:41;;;;;;;9.57;5.80;;;31.70;46.70;;;;;;5056806;28;20467;-86
2022/05/20 10:50:02;;;;;;;7.83;6.07;;;31.90;46.50;;;;;;5084978;28;20508;-85
2022/05/20 10:52:46;;;;;;;9.10;6.30;;;32.10;46.00;;;;;;5073561;28;20511;-84
2022/05/20 10:55:21;;;;;;;6.70;6.20;;;32.50;47.10;;;;;;5071115;28;20858;-89
2022/05/20 10:58:26;;;;;;;7.77;5.63;;;32.70;45.00;;;;;;5087312;28;20539;-85
2022/05/20 11:00:55;;;;;;;12.57;6.30;;;32.20;44.60;;;;;;5069171;28;21235;-85
2022/05/20 11:04:09;;;;;;;7.90;6.33;;;31.80;46.10;;;;;;5086930;28;20997;-87
2022/05/20 11:06:50;;;;;;;6.53;5.90;;;31.90;46.70;;;;;;5066144;28;20467;-86
2022/05/20 11:09:21;;;;;;;6.10;5.33;;;32.20;44.60;;;;;;5087178;28;20508;-85
2022/05/20 11:11:57;;;;;;;6.47;5.80;;;32.20;45.40;;;;;;5087429;28;20435;-85
2022/05/20 11:15:00;;;;;;;6.63;5.90;;;32.00;45.60;;;;;;5069676;28;20536;-85
2022/05/20 11:17:56;;;;;;;7.73;7.03;;;32.20;46.60;;;;;;5027118;28;20466;-86
2022/05/20 11:20:46;;;;;;;8.40;6.17;;;32.40;45.50;;;;;;5086314;28;20440;-86
2022/05/20 11:23:36;;;;;;;7.10;5.73;;;32.60;45.60;;;;;;5032567;28;21006;-85
2022/05/20 11:26:45;;;;;;;9.90;7.00;;;32.80;45.20;;;;;;5088182;28;20504;-86
2022/05/20 11:29:38;;;;;;;13.73;5.67;;;32.80;44.80;;;;;;5086667;28;20451;-86
2022/05/20 11:32:07;;;;;;;9.33;6.27;;;32.80;46.20;;;;;;5073149;28;20941;-85
2022/05/20 11:35:01;;;;;;;7.20;6.50;;;32.90;44.50;;;;;;5089784;28;21377;-85
2022/05/20 11:37:44;;;;;;;6.83;5.90;;;33.10;43.50;;;;;;5089890;28;20451;-88
2022/05/20 11:40:23;;;;;;;7.40;5.87;;;32.80;43.90;;;;;;5092416;28;20957;-85
2022/05/20 11:43:10;;;;;;;8.60;5.77;;;33.10;44.40;;;;;;5060182;28;20490;-85
2022/05/20 11:45:48;;;;;;;6.43;5.87;;;33.30;43.70;;;;;;5074768;28;20442;-85
2022/05/20 11:48:42;;;;;;;6.43;5.83;;;33.50;42.80;;;;;;5074000;28;20890;-85
2022/05/20 11:51:24;;;;;;;6.70;5.77;;;33.40;42.40;;;;;;5071984;28;20494;-88
2022/05/20 11:53:54;;;;;;;5.60;5.20;;;33.30;43.40;;;;;;5072669;28;20468;-88
2022/05/20 11:56:30;;;;;;;7.33;5.67;;;33.60;44.20;;;;;;5074520;28;20527;-85
2022/05/20 11:59:06;;;;;;;6.50;5.67;;;33.60;42.50;;;;;;5090323;28;20443;-86
2022/05/20 12:01:36;;;;;;;6.47;5.87;;;33.70;43.50;;;;;;5090136;28;20530;-85
2022/05/20 12:04:08;;;;;;;5.00;4.60;;;34.10;43.30;;;;;;5069434;28;20482;-84
2022/05/20 12:06:41;;;;;;;4.77;4.37;;;34.20;39.20;;;;;;5090590;28;20515;-86
2022/05/20 12:09:34;;;;;;;5.27;4.70;;;34.20;38.80;;;;;;5071122;28;20447;-85
2022/05/20 12:12:12;;;;;;;7.00;4.67;;;34.50;37.50;;;;;;5090700;28;20443;-84
2022/05/20 12:15:09;;;;;;;4.70;4.30;;;34.40;35.20;;;;;;5070623;28;21099;-86
2022/05/20 12:17:39;;;;;;;7.00;4.10;;;34.50;35.00;;;;;;5070492;28;20451;-85
2022/05/20 12:26:27;;;;;;;4.20;3.80;;;34.80;35.10;;;;;;5086843;28;20533;-86
2022/05/20 12:28:54;;;;;;;3.80;3.50;;;34.90;33.90;;;;;;5068046;28;21232;-86
2022/05/20 12:31:39;;;;;;;4.80;4.10;;;34.80;32.60;;;;;;5060753;28;20959;-85
2022/05/20 12:34:10;;;;;;;5.17;3.50;;;35.10;32.30;;;;;;5084467;28;20478;-86
2022/05/20 12:36:39;;;;;;;9.27;3.63;;;35.10;30.40;;;;;;5086599;28;20448;-86
2022/05/20 12:39:49;;;;;;;8.43;3.70;;;34.60;29.90;;;;;;5054508;28;20857;-86
2022/05/20 12:42:24;;;;;;;4.10;3.37;;;34.10;32.40;;;;;;5076266;28;20447;-87
2022/05/20 12:44:52;;;;;;;4.47;3.50;;;34.50;31.60;;;;;;5080444;28;20475;-87
2022/05/20 12:47:29;;;;;;;4.33;3.90;;;34.70;32.40;;;;;;5089771;28;20439;-88
2022/05/20 12:50:06;;;;;;;4.60;3.73;;;35.10;31.60;;;;;;5044453;28;20446;-90
2022/05/20 12:52:35;;;;;;;6.00;3.70;;;35.20;31.60;;;;;;5072786;28;20532;-88
2022/05/20 12:55:13;;;;;;;5.40;3.70;;;35.10;30.00;;;;;;5069873;28;20483;-88
2022/05/20 12:57:50;;;;;;;8.17;3.93;;;34.90;32.10;;;;;;5055475;28;20461;-88
2022/05/20 13:00:24;;;;;;;5.30;3.80;;;35.20;32.20;;;;;;5087791;28;20431;-87
2022/05/20 13:02:55;;;;;;;4.17;3.87;;;35.40;29.90;;;;;;5090385;28;20462;-87
2022/05/20 13:05:29;;;;;;;3.90;3.40;;;35.70;30.60;;;;;;5077765;28;20540;-88
2022/05/20 13:07:58;;;;;;;4.70;3.77;;;35.70;32.40;;;;;;5076341;28;21034;-87
2022/05/20 13:10:30;;;;;;;7.90;4.13;;;35.70;31.30;;;;;;5072043;28;20439;-89
2022/05/20 13:13:01;;;;;;;5.40;3.80;;;35.80;32.00;;;;;;5089405;28;20435;-88
2022/05/20 13:15:28;;;;;;;8.00;3.53;;;36.00;30.40;;;;;;5091752;28;20455;-87
2022/05/20 13:18:00;;;;;;;4.17;3.10;;;35.80;30.60;;;;;;5095332;28;20902;-87
2022/05/20 13:20:32;;;;;;;6.30;3.90;;;36.00;31.30;;;;;;5091751;28;20498;-88
2022/05/20 13:23:00;;;;;;;5.20;4.43;;;35.70;30.00;;;;;;5091888;28;20464;-88
2022/05/20 13:25:28;;;;;;;5.90;4.47;;;35.40;29.50;;;;;;5066449;28;21288;-88
2022/05/20 13:27:55;;;;;;;5.80;3.67;;;35.50;31.40;;;;;;5094830;28;20443;-87
2022/05/20 13:30:25;;;;;;;9.53;4.17;;;35.50;31.00;;;;;;5060058;28;20459;-87
2022/05/20 13:32:53;;;;;;;5.63;3.80;;;35.50;31.60;;;;;;5068030;28;20934;-87
2022/05/20 13:35:20;;;;;;;5.53;3.03;;;35.70;31.40;;;;;;5073362;28;20476;-89
2022/05/20 13:37:52;;;;;;;5.60;3.53;;;36.00;29.80;;;;;;5082059;28;20475;-87
2022/05/20 13:40:22;;;;;;;4.43;3.90;;;35.70;29.90;;;;;;5044296;28;20473;-90
2022/05/20 13:42:53;;;;;;;7.23;4.17;;;35.60;30.20;;;;;;5079432;28;21079;-88
2022/05/20 13:49:12;;;;;;;6.30;3.90;;;35.70;30.90;;;;;;5055823;28;20483;-88
2022/05/20 13:51:02;;;;;;;5.23;3.90;;;36.00;30.10;;;;;;5058425;28;20444;-87